Nampa, ID

10:04 PM MDT on October 20, 2017 (GMT -0600)
Nampa

Weather History for KMAN - April, 2013

Change the Weather History Date:

Monday, April 8, 2013

  Actual Average (KBOI) Record (KBOI)
Temperature  
Mean Temperature 45 °F -  
Max Temperature 55 °F 60 °F 82 °F (1996)
Min Temperature 35 °F 35 °F 20 °F (1890)
Degree Days  
Heating Degree Days 20    
Moisture  
Dew Point 26 °F    
Average Humidity 51    
Maximum Humidity 81    
Minimum Humidity 25    
Precipitation  
Precipitation 0.00 in - - ()
Sea Level Pressure  
Sea Level Pressure 29.81 in    
Wind  
Wind Speed 15 mph (NW)    
Max Wind Speed 26 mph    
Max Gust Speed 39 mph    
Visibility 10 miles    
Events      
Averages and records for this station are not official NWS values.
T = Trace of Precipitation, MM = Missing Value Source: NWS Daily Summary

Daily Weather History Graph

Daily Weather History Graph

Search for Another Location

Airport or City:

Trip Planner

Search our weather history database for the weather conditions in past years. The results will help you decide how hot, cold, wet, or windy it might be!

Date:

Astronomy

Apr. 08, 2013 Rise Set
Actual Time 7:14 AM MDT 8:21 PM MDT
Civil Twilight 6:45 AM MDT 8:50 PM MDT
Nautical Twilight 6:10 AM MDT 9:26 PM MDT
Astronomical Twilight 5:33 AM MDT 10:03 PM MDT
Moon 6:09 AM MDT (4/8) 6:58 PM MDT (4/8)
Length of Visible Light 14h 05m
Length of Day
13h 06m
Waning Crescent, 3% of the Moon is Illuminated
Apr 8
Waning Crescent
Apr 10
New
Apr 18
First Quarter
Apr 25
Full
May 2
Last Quarter

Hourly Weather History & Observations

Time (MDT) Temp. Windchill Dew Point Humidity Pressure Visibility Wind Dir Wind Speed Gust Speed Precip Events Conditions
12:15 AM 41.0 °F 34.7 °F 32.0 °F 70% 29.73 in 10.0 mi West 10.4 mph - N/A   Partly Cloudy
12:55 AM 39.2 °F 32.0 °F 32.0 °F 75% 29.73 in 10.0 mi WNW 11.5 mph - N/A   Clear
1:15 AM 39.2 °F 32.0 °F 32.0 °F 75% 29.73 in 10.0 mi West 11.5 mph - N/A   Clear
1:35 AM 39.2 °F 32.5 °F 30.2 °F 70% 29.72 in 10.0 mi WNW 10.4 mph - N/A   Clear
1:55 AM 37.4 °F 29.8 °F 30.2 °F 75% 29.72 in 10.0 mi WNW 11.5 mph - N/A   Clear
2:15 AM 37.4 °F 30.3 °F 32.0 °F 81% 29.72 in 10.0 mi WNW 10.4 mph - N/A   Clear
2:35 AM 35.6 °F 29.2 °F 30.2 °F 81% 29.72 in 10.0 mi WNW 8.1 mph - N/A   Clear
2:55 AM 35.6 °F 27.5 °F 30.2 °F 81% 29.72 in 10.0 mi WNW 11.5 mph - N/A   Clear
3:15 AM 35.6 °F 28.6 °F 30.2 °F 81% 29.72 in 10.0 mi WNW 9.2 mph - N/A   Clear
3:35 AM 35.6 °F 28.6 °F 30.2 °F 81% 29.72 in 10.0 mi WNW 9.2 mph - N/A   Clear
3:55 AM 35.6 °F 27.5 °F 28.4 °F 75% 29.73 in 10.0 mi NW 11.5 mph - N/A   Clear
4:15 AM 35.6 °F 26.6 °F 28.4 °F 75% 29.73 in 10.0 mi NW 13.8 mph 18.4 mph N/A   Clear
4:35 AM 35.6 °F 27.5 °F 28.4 °F 75% 29.73 in 10.0 mi NW 11.5 mph 18.4 mph N/A   Clear
4:55 AM 37.4 °F 28.2 °F 28.4 °F 70% 29.73 in 10.0 mi NW 16.1 mph 25.3 mph N/A   Clear
5:15 AM 37.4 °F 28.9 °F 28.4 °F 70% 29.74 in 10.0 mi NW 13.8 mph 19.6 mph N/A   Clear
5:55 AM 37.4 °F 29.3 °F 28.4 °F 70% 29.75 in 10.0 mi NW 12.7 mph 17.3 mph N/A   Clear
6:15 AM 37.4 °F 28.9 °F 28.4 °F 70% 29.76 in 10.0 mi NW 13.8 mph 19.6 mph N/A   Mostly Cloudy
6:35 AM 37.4 °F 28.5 °F 26.6 °F 65% 29.76 in 10.0 mi NW 15.0 mph 19.6 mph N/A   Mostly Cloudy
6:55 AM 37.4 °F 28.5 °F 26.6 °F 65% 29.76 in 10.0 mi NW 15.0 mph - N/A   Overcast
7:15 AM 37.4 °F 28.2 °F 26.6 °F 65% 29.77 in 10.0 mi NW 16.1 mph 21.9 mph N/A   Scattered Clouds
7:35 AM 39.2 °F 30.2 °F 26.6 °F 61% 29.77 in 10.0 mi NW 17.3 mph 21.9 mph N/A   Clear
7:55 AM 39.2 °F 30.2 °F 26.6 °F 61% 29.78 in 10.0 mi NW 17.3 mph 23.0 mph N/A   Clear
8:15 AM 39.2 °F 29.6 °F 26.6 °F 61% 29.78 in 10.0 mi NW 19.6 mph 28.8 mph N/A   Clear
8:35 AM 41.0 °F 31.9 °F 26.6 °F 57% 29.79 in 10.0 mi NW 19.6 mph 27.6 mph N/A   Clear
8:55 AM 41.0 °F 32.2 °F 28.4 °F 61% 29.80 in 10.0 mi NW 18.4 mph 26.5 mph N/A   Clear
9:15 AM 41.0 °F 32.2 °F 28.4 °F 61% 29.80 in 10.0 mi NW 18.4 mph 26.5 mph N/A   Clear
9:35 AM 41.0 °F 32.8 °F 28.4 °F 61% 29.80 in 10.0 mi NW 16.1 mph 23.0 mph N/A   Clear
9:55 AM 44.6 °F 36.6 °F 26.6 °F 49% 29.80 in 10.0 mi NW 19.6 mph 31.1 mph N/A   Clear
10:15 AM 44.6 °F 36.6 °F 26.6 °F 49% 29.81 in 10.0 mi NW 19.6 mph 28.8 mph N/A   Clear
10:35 AM 46.4 °F 38.5 °F 26.6 °F 46% 29.81 in 10.0 mi NW 21.9 mph 31.1 mph N/A   Clear
10:55 AM 46.4 °F 39.2 °F 24.8 °F 43% 29.81 in 10.0 mi NW 18.4 mph 28.8 mph N/A   Clear
11:15 AM 46.4 °F 39.0 °F 24.8 °F 43% 29.82 in 10.0 mi NW 19.6 mph 28.8 mph N/A   Clear
11:35 AM 48.2 °F - 24.8 °F 40% 29.82 in 10.0 mi NNW 18.4 mph 28.8 mph N/A   Clear
11:55 AM 48.2 °F - 24.8 °F 40% 29.81 in 10.0 mi NW 23.0 mph 27.6 mph N/A   Partly Cloudy
12:15 PM 48.2 °F - 24.8 °F 40% 29.81 in 10.0 mi NW 24.2 mph 35.7 mph N/A   Partly Cloudy
12:35 PM 50.0 °F - 24.8 °F 37% 29.81 in 10.0 mi NW 18.4 mph 29.9 mph N/A   Partly Cloudy
12:55 PM 50.0 °F - 24.8 °F 37% 29.80 in 10.0 mi NW 23.0 mph 32.2 mph N/A   Clear
1:15 PM 51.8 °F - 24.8 °F 35% 29.80 in 10.0 mi NW 20.7 mph 26.5 mph N/A   Partly Cloudy
1:35 PM 51.8 °F - 24.8 °F 35% 29.80 in 10.0 mi NNW 20.7 mph 31.1 mph N/A   Scattered Clouds
1:55 PM 53.6 °F - 23.0 °F 30% 29.80 in 10.0 mi North 23.0 mph 32.2 mph N/A   Clear
2:15 PM 53.6 °F - 23.0 °F 30% 29.80 in 10.0 mi North 21.9 mph 35.7 mph N/A   Clear
2:35 PM 53.6 °F - 24.8 °F 33% 29.80 in 10.0 mi NNW 19.6 mph 35.7 mph N/A   Scattered Clouds
2:55 PM 53.6 °F - 23.0 °F 30% 29.80 in 10.0 mi North 23.0 mph 36.8 mph N/A   Partly Cloudy
3:15 PM 55.4 °F - 19.4 °F 25% 29.80 in 10.0 mi North 24.2 mph 38.0 mph N/A   Partly Cloudy
3:35 PM 55.4 °F - 23.0 °F 29% 29.80 in 10.0 mi NNW 23.0 mph 34.5 mph N/A   Partly Cloudy
3:55 PM 55.4 °F - 24.8 °F 31% 29.80 in 10.0 mi NNW 26.5 mph 32.2 mph N/A   Scattered Clouds
4:15 PM 55.4 °F - 23.0 °F 29% 29.80 in 10.0 mi NNW 23.0 mph 33.4 mph N/A   Partly Cloudy
4:35 PM 55.4 °F - 23.0 °F 29% 29.80 in 10.0 mi NNW 24.2 mph 39.1 mph N/A   Partly Cloudy
4:55 PM 55.4 °F - 24.8 °F 31% 29.80 in 10.0 mi NNW 23.0 mph 32.2 mph N/A   Partly Cloudy
5:15 PM 55.4 °F - 24.8 °F 31% 29.80 in 10.0 mi NNW 24.2 mph 36.8 mph N/A   Clear
5:35 PM 53.6 °F - 23.0 °F 30% 29.81 in 10.0 mi NNW 20.7 mph 38.0 mph N/A   Clear
5:55 PM 53.6 °F - 23.0 °F 30% 29.82 in 10.0 mi NNW 20.7 mph 33.4 mph N/A   Clear
6:15 PM 53.6 °F - 24.8 °F 33% 29.83 in 10.0 mi NNW 21.9 mph 33.4 mph N/A   Clear
6:35 PM 53.6 °F - 21.2 °F 28% 29.83 in 10.0 mi North 24.2 mph 34.5 mph N/A   Clear
6:55 PM 51.8 °F - 23.0 °F 33% 29.85 in 10.0 mi NNW 24.2 mph 36.8 mph N/A   Clear
7:15 PM 50.0 °F - 23.0 °F 35% 29.86 in 10.0 mi NNW 21.9 mph 32.2 mph N/A   Clear
7:35 PM 50.0 °F - 23.0 °F 35% 29.87 in 10.0 mi NNW 19.6 mph 29.9 mph N/A   Clear
7:55 PM 48.2 °F - 21.2 °F 34% 29.88 in 10.0 mi NNW 17.3 mph 32.2 mph N/A   Clear
8:15 PM 48.2 °F - 23.0 °F 37% 29.89 in 10.0 mi NNW 18.4 mph 27.6 mph N/A   Clear
8:35 PM 46.4 °F 40.4 °F 24.8 °F 43% 29.90 in 10.0 mi NW 13.8 mph 21.9 mph N/A   Clear
8:55 PM 46.4 °F 40.4 °F 26.6 °F 46% 29.91 in 10.0 mi NW 13.8 mph 20.7 mph N/A   Clear
9:15 PM 46.4 °F 40.4 °F 24.8 °F 43% 29.93 in 10.0 mi NW 13.8 mph 23.0 mph N/A   Clear
9:35 PM 44.6 °F 38.1 °F 24.8 °F 46% 29.94 in 10.0 mi NW 13.8 mph 19.6 mph N/A   Clear
9:55 PM 44.6 °F 37.8 °F 26.6 °F 49% 29.95 in 10.0 mi NW 15.0 mph 21.9 mph N/A   Clear
10:15 PM 42.8 °F 35.4 °F 26.6 °F 53% 29.96 in 10.0 mi NW 15.0 mph 23.0 mph N/A   Clear
10:35 PM 42.8 °F 35.4 °F 26.6 °F 53% 29.97 in 10.0 mi NW 15.0 mph 24.2 mph N/A   Clear
10:55 PM 41.0 °F 32.2 °F 26.6 °F 57% 29.97 in 10.0 mi NW 18.4 mph 25.3 mph N/A   Clear
11:15 PM 41.0 °F 32.8 °F 26.6 °F 57% 29.98 in 10.0 mi NW 16.1 mph 25.3 mph N/A   Clear
11:35 PM 41.0 °F 32.2 °F 26.6 °F 57% 29.98 in 10.0 mi NW 18.4 mph 27.6 mph N/A   Clear
11:55 PM 41.0 °F 32.8 °F 26.6 °F 57% 29.99 in 10.0 mi NW 16.1 mph 26.5 mph N/A   Clear